Tyrone, NY (14887)

5:57 PM EDT on August 31, 2016 (GMT -0400)
Lamoka Lake | | Change Station

Elev 1102 ft 42.41 °N, 77.07 °W | Updated 34 seconds ago

Mostly Cloudy
Mostly Cloudy
79.2 °F
Feels Like 81 °F
N
2.2
Wind Variable Wind from SW

Today
High -- | Low -- °F
--% Chance of Precip.
Yesterday
High -- | Low -- °F
Precip. -- in
Pressure 29.88 in
Visibility 10.0 miles
Clouds Mostly Cloudy 3600 ft
Mostly Cloudy 4600 ft
Heat Index 81 °F
Dew Point 65 °F
Humidity 62%
Rainfall 0.02 in
Snow Depth Not available.
6:32 AM 7:43 PM
Waning Crescent, 0% visible
METAR KPEO 312153Z AUTO 20005KT 10SM BKN036 BKN046 26/18 A2990 RMK AO2 SLP117 T02560178 TSNO
Pressure 29.88 in
Visibility 10.0 miles
Clouds Mostly Cloudy 3600 ft
Mostly Cloudy 4600 ft
Heat Index 81 °F
Dew Point 65 °F
Humidity 62%
Rainfall 0.02 in
Snow Depth Not available.
6:32 AM 7:43 PM
Waning Crescent, 0% visible
METAR KPEO 312153Z AUTO 20005KT 10SM BKN036 BKN046 26/18 A2990 RMK AO2 SLP117 T02560178 TSNO

10-Day Weather Forecast

Almanac

Astronomy

Aug. 31, 2016 Rise Set
Actual Time
Civil Twilight
Nautical Twilight
Astronomical Twilight
Moon
Length of Visible Light
Length of Day
Tomorrow will be .
, % of the Moon is Illuminated

Today's Extremes

State Highs State Lows

Community

WunderPhotos

Upload Photos

1,936,189 photos uploaded!

WunderBlog® & News

Nearby

Air Quality

  Air Quality AQ Index Pollutant
Not available.

Snow Depth

Station Depth Elevation

Earthquake Activity

City Distance Mag. Time & Date
Minimum magnitude displayed is 2.5.

Coastal Water Temperatures

Place Temperature

Stations

Nearby Weather Stations

Station Location Temp. Windchill Dew Point Humidity Wind Precip. Elev Updated Type
                   

Watches & Warnings

There are currently no watches in effect.